메인 페이지
METAR-TAF:

METAR-TAF

공항 :

극북의 땅, 그린란드

위도: 76-32N, 경도: 068-42W, 고도: 77m

현재 날씨관측

예보는 1 시간 35분 전, 12:56시(UTC)에 발표되었습니다.
무풍
온도 -21°C
습도 84%
기압 1022 hPa
시정 10km 이상
맑음

METAR: BGTL 191256Z AUTO 00000KT 9999 CLR M21/M23 A3018 RMK AO2 SLP211 T12061235 TSNO $

시각: 10:31 (14:31 UTC)

예보

예보는 4 시간 28분 전, 10:03시(UTC)에 발표되었습니다.
예보 대상 시간: 19일 10시부터 20일 16시까지 (UTC)
여러 방향의 바람 6kt
시정 10km 이상
고도 3000ft 상공 구름 조금
고도 6000ft 상공 구름 조금
고도 16000ft 상공 구름 보통

TAF: BGTL 191003Z 1910/2016 VRB06KT 9999 FEW030 FEW060 SCT160 QNH2966INS TXM19/1911Z TNM28/1920Z

4,000개 이상의 공항 관측 자료 및 예보 (METAR 및 TAF 보고).

지도상에서 검색 가능한 기상관측소가 노란 점과 빨간 점으로 표시되어 있습니다.

기상관측소 명을 보려면 표시 위로 마우스를 이동하세요.

날씨 관측과 예보를 보려면 클릭하세요.

지도 변경 : 확대하려면 엑스 표시가 있는 녹색 버튼, 축소하려면 빼기 표시가 있는 녹색 버튼, 다음 페이지의 지도를 보려면 녹색 화살표를 클릭하세요.


METAR-TAF: